Terminal Aerodrome Forecast
Issued by NWS

Current Version | Previous Version | Text Only | Print | Product List | Glossary On
Versions: 1 2 3 4 5 6 7 8 9 10 11 12 13 14 15 16 17 18 19 20 21 22 23
000
FTUS45 KREV 032323
TAFTVL
TAF
KTVL 032323Z 0400/0424 20013G22KT P6SM SCT060
     FM040200 17008KT P6SM FEW060 SCT180
     FM041600 19008G17KT P6SM SCT060 SCT180
     FM042200 20016G25KT P6SM SCT060 SCT180=

USA.gov is the U.S. government's official web portal to all federal, state and local government web resources and services.